Time,TemperatureF,DewpointF,PressureIn,WindDirection,WindDirectionDegrees,WindSpeedMPH,WindSpeedGustMPH,Humidity,HourlyPrecipIn,Conditions,Clouds,dailyrainin,SoftwareType,DateUTC
2013-07-27 00:02:00,67.0,65.0,29.96,South,184,1.0,4.0,93,0.00,,,0.00,,2013-07-27 05:02:00,
2013-07-27 00:12:00,67.0,65.0,29.96,South,178,2.0,5.0,93,0.00,,,0.00,,2013-07-27 05:12:00,
2013-07-27 00:22:00,67.0,65.0,29.96,South,186,4.0,8.0,93,0.00,,,0.00,,2013-07-27 05:22:00,
2013-07-27 00:32:00,67.0,65.0,29.96,South,186,4.0,8.0,93,0.00,,,0.00,,2013-07-27 05:32:00,
2013-07-27 00:43:00,67.0,65.0,29.95,South,181,2.0,5.0,92,0.00,,,0.00,,2013-07-27 05:43:00,
2013-07-27 01:02:00,66.0,64.0,29.95,South,182,0.0,4.0,92,0.00,,,0.00,,2013-07-27 06:02:00,
2013-07-27 01:12:00,66.0,64.0,29.94,South,182,0.0,1.0,93,0.00,,,0.00,,2013-07-27 06:12:00,
2013-07-27 01:22:00,66.0,64.0,29.95,South,182,0.0,2.0,93,0.00,,,0.00,,2013-07-27 06:22:00,
2013-07-27 01:33:00,66.0,64.0,29.95,South,182,0.0,2.0,93,0.00,,,0.00,,2013-07-27 06:33:00,
2013-07-27 01:43:00,67.0,65.0,29.94,SW,231,0.0,2.0,92,0.00,,,0.00,,2013-07-27 06:43:00,
2013-07-27 01:52:00,67.0,65.0,29.94,SW,229,0.0,5.0,92,0.00,,,0.00,,2013-07-27 06:52:00,
2013-07-27 02:02:00,67.0,65.0,29.94,SW,229,0.0,5.0,92,0.00,,,0.00,,2013-07-27 07:02:00,
2013-07-27 02:12:00,67.0,64.0,29.94,SSW,197,1.0,5.0,91,0.00,,,0.00,,2013-07-27 07:12:00,
2013-07-27 02:22:00,67.0,64.0,29.93,SSW,211,2.0,6.0,90,0.00,,,0.00,,2013-07-27 07:22:00,
2013-07-27 02:33:00,67.0,64.0,29.93,SSW,211,2.0,6.0,90,0.00,,,0.00,,2013-07-27 07:33:00,
2013-07-27 02:44:00,67.0,64.0,29.93,SSW,194,2.0,5.0,90,0.00,,,0.00,,2013-07-27 07:44:00,
2013-07-27 02:52:00,67.0,64.0,29.93,SW,223,1.0,4.0,90,0.00,,,0.00,,2013-07-27 07:52:00,
2013-07-27 03:02:00,67.0,64.0,29.93,SW,223,1.0,4.0,90,0.00,,,0.00,,2013-07-27 08:02:00,
2013-07-27 03:12:00,67.0,64.0,29.93,WSW,238,2.0,5.0,90,0.00,,,0.00,,2013-07-27 08:12:00,
2013-07-27 03:22:00,67.0,64.0,29.92,SSW,213,4.0,7.0,90,0.00,,,0.00,,2013-07-27 08:22:00,
2013-07-27 03:32:00,67.0,64.0,29.92,SSW,213,4.0,7.0,90,0.00,,,0.00,,2013-07-27 08:32:00,
2013-07-27 03:43:00,67.0,65.0,29.92,WSW,238,1.0,7.0,92,0.00,,,0.00,,2013-07-27 08:43:00,
2013-07-27 03:53:00,66.0,64.0,29.92,SW,225,0.0,7.0,93,0.00,,,0.00,,2013-07-27 08:53:00,
2013-07-27 04:02:00,66.0,64.0,29.92,SW,225,0.0,7.0,93,0.00,,,0.00,,2013-07-27 09:02:00,
2013-07-27 04:12:00,66.0,64.0,29.92,SW,227,0.0,3.0,94,0.00,,,0.00,,2013-07-27 09:12:00,
2013-07-27 04:22:00,66.0,65.0,29.92,SW,227,0.0,2.0,95,0.00,,,0.00,,2013-07-27 09:22:00,
2013-07-27 04:33:00,66.0,65.0,29.92,SW,227,0.0,2.0,95,0.00,,,0.00,,2013-07-27 09:33:00,
2013-07-27 04:44:00,67.0,66.0,29.93,NNW,348,1.0,5.0,95,0.00,,,0.00,,2013-07-27 09:44:00,
2013-07-27 04:52:00,67.0,66.0,29.93,SW,236,0.0,3.0,95,0.00,,,0.00,,2013-07-27 09:52:00,
2013-07-27 05:02:00,67.0,66.0,29.93,SW,236,0.0,3.0,95,0.00,,,0.00,,2013-07-27 10:02:00,
2013-07-27 05:12:00,67.0,66.0,29.93,WSW,243,0.0,2.0,95,0.00,,,0.00,,2013-07-27 10:12:00,
2013-07-27 05:22:00,67.0,66.0,29.93,West,275,0.0,4.0,95,0.00,,,0.00,,2013-07-27 10:22:00,
2013-07-27 05:32:00,67.0,66.0,29.93,West,275,0.0,4.0,95,0.00,,,0.00,,2013-07-27 10:32:00,
2013-07-27 05:43:00,67.0,66.0,29.93,WNW,297,0.0,4.0,95,0.00,,,0.00,,2013-07-27 10:43:00,
2013-07-27 05:52:00,66.0,65.0,29.93,North,360,0.0,5.0,95,0.00,,,0.00,,2013-07-27 10:52:00,
2013-07-27 06:02:00,66.0,65.0,29.93,North,360,0.0,5.0,95,0.00,,,0.00,,2013-07-27 11:02:00,
2013-07-27 06:12:00,66.0,64.0,29.94,NNW,339,2.0,6.0,94,0.00,,,0.00,,2013-07-27 11:12:00,
2013-07-27 06:22:00,65.0,63.0,29.95,NNW,329,0.0,4.0,94,0.00,,,0.00,,2013-07-27 11:22:00,
2013-07-27 06:32:00,65.0,63.0,29.95,NNW,329,0.0,4.0,94,0.00,,,0.00,,2013-07-27 11:32:00,
2013-07-27 06:44:00,65.0,63.0,29.95,NNW,329,0.0,4.0,94,0.00,,,0.00,,2013-07-27 11:44:00,
2013-07-27 06:52:00,65.0,63.0,29.95,NNW,333,0.0,2.0,94,0.00,,,0.00,,2013-07-27 11:52:00,
2013-07-27 07:02:00,65.0,63.0,29.95,NNW,333,0.0,2.0,94,0.00,,,0.00,,2013-07-27 12:02:00,
2013-07-27 07:12:00,65.0,63.0,29.95,West,279,0.0,4.0,94,0.00,,,0.00,,2013-07-27 12:12:00,
2013-07-27 07:33:00,66.0,64.0,29.96,WNW,283,0.0,4.0,93,0.00,,,0.00,,2013-07-27 12:33:00,
2013-07-27 07:43:00,67.0,65.0,29.96,WNW,288,1.0,4.0,92,0.00,,,0.00,,2013-07-27 12:43:00,
2013-07-27 08:02:00,67.0,63.0,29.96,NNW,333,2.0,7.0,88,0.00,,,0.00,,2013-07-27 13:02:00,
2013-07-27 08:12:00,68.0,64.0,29.97,NW,310,3.0,8.0,86,0.00,,,0.00,,2013-07-27 13:12:00,
2013-07-27 08:32:00,67.0,63.0,29.97,NW,319,1.0,7.0,86,0.00,,,0.00,,2013-07-27 13:32:00,
2013-07-27 08:44:00,67.0,62.0,29.97,West,275,1.0,5.0,85,0.00,,,0.00,,2013-07-27 13:44:00,
2013-07-27 09:02:00,68.0,63.0,29.96,NNW,348,1.0,5.0,84,0.00,,,0.00,,2013-07-27 14:02:00,
2013-07-27 09:12:00,69.0,63.0,29.96,NNW,342,3.0,7.0,82,0.00,,,0.00,,2013-07-27 14:12:00,
2013-07-27 09:22:00,69.0,63.0,29.96,NNW,342,3.0,7.0,82,0.00,,,0.00,,2013-07-27 14:22:00,
2013-07-27 09:32:00,70.0,64.0,29.96,WNW,294,1.0,6.0,81,0.00,,,0.00,,2013-07-27 14:32:00,
2013-07-27 09:44:00,70.0,63.0,29.96,WNW,291,0.0,9.0,79,0.00,,,0.00,,2013-07-27 14:44:00,
2013-07-27 09:54:00,70.0,63.0,29.96,WNW,291,0.0,9.0,79,0.00,,,0.00,,2013-07-27 14:54:00,
2013-07-27 10:02:00,71.0,63.0,29.96,WSW,237,3.0,6.0,75,0.00,,,0.00,,2013-07-27 15:02:00,
2013-07-27 10:12:00,71.0,63.0,29.96,NNW,328,4.0,7.0,75,0.00,,,0.00,,2013-07-27 15:12:00,
2013-07-27 10:22:00,71.0,63.0,29.96,NNW,328,4.0,7.0,75,0.00,,,0.00,,2013-07-27 15:22:00,
2013-07-27 10:33:00,72.0,64.0,29.96,NNW,343,3.0,8.0,76,0.00,,,0.00,,2013-07-27 15:33:00,
2013-07-27 10:44:00,72.0,62.0,29.96,West,274,3.0,7.0,72,0.00,,,0.00,,2013-07-27 15:44:00,
2013-07-27 10:53:00,72.0,62.0,29.96,West,274,3.0,7.0,72,0.00,,,0.00,,2013-07-27 15:53:00,
2013-07-27 11:02:00,73.0,63.0,29.96,WSW,247,2.0,8.0,72,0.00,,,0.00,,2013-07-27 16:02:00,
2013-07-27 11:12:00,74.0,63.0,29.95,NNW,335,2.0,7.0,69,0.00,,,0.00,,2013-07-27 16:12:00,
2013-07-27 11:23:00,74.0,63.0,29.95,NNW,335,2.0,7.0,69,0.00,,,0.00,,2013-07-27 16:23:00,
2013-07-27 11:33:00,74.0,62.0,29.95,WNW,296,1.0,9.0,67,0.00,,,0.00,,2013-07-27 16:33:00,
2013-07-27 11:43:00,75.0,63.0,29.95,North,349,2.0,8.0,66,0.00,,,0.00,,2013-07-27 16:43:00,
2013-07-27 11:53:00,75.0,63.0,29.95,North,349,2.0,8.0,66,0.00,,,0.00,,2013-07-27 16:53:00,
2013-07-27 12:02:00,74.0,60.0,29.95,West,279,4.0,10.0,61,0.00,,,0.00,,2013-07-27 17:02:00,
2013-07-27 12:12:00,74.0,60.0,29.95,NW,323,2.0,8.0,62,0.00,,,0.00,,2013-07-27 17:12:00,
2013-07-27 12:22:00,74.0,60.0,29.95,NW,323,2.0,8.0,62,0.00,,,0.00,,2013-07-27 17:22:00,
2013-07-27 12:32:00,74.0,60.0,29.94,West,273,3.0,11.0,61,0.00,,,0.00,,2013-07-27 17:32:00,
2013-07-27 12:43:00,74.0,60.0,29.94,NNW,329,2.0,10.0,62,0.00,,,0.00,,2013-07-27 17:43:00,
2013-07-27 12:53:00,74.0,60.0,29.94,NNW,329,2.0,10.0,62,0.00,,,0.00,,2013-07-27 17:53:00,
2013-07-27 13:02:00,75.0,61.0,29.94,NW,321,4.0,10.0,62,0.00,,,0.00,,2013-07-27 18:02:00,
2013-07-27 13:22:00,75.0,60.0,29.93,NW,304,2.0,12.0,59,0.00,,,0.00,,2013-07-27 18:22:00,
2013-07-27 13:33:00,75.0,58.0,29.93,North,355,5.0,11.0,56,0.00,,,0.00,,2013-07-27 18:33:00,
2013-07-27 13:43:00,76.0,60.0,29.93,North,5,7.0,13.0,58,0.00,,,0.00,,2013-07-27 18:43:00,
2013-07-27 13:53:00,76.0,60.0,29.93,North,5,7.0,13.0,58,0.00,,,0.00,,2013-07-27 18:53:00,
2013-07-27 14:02:00,74.0,60.0,29.93,WNW,284,5.0,11.0,61,0.00,,,0.00,,2013-07-27 19:02:00,
2013-07-27 14:12:00,75.0,61.0,29.92,NNW,339,7.0,12.0,61,0.00,,,0.00,,2013-07-27 19:12:00,
2013-07-27 14:23:00,75.0,61.0,29.92,NNW,339,7.0,12.0,61,0.00,,,0.00,,2013-07-27 19:23:00,
2013-07-27 14:32:00,75.0,59.0,29.92,WSW,248,3.0,12.0,57,0.00,,,0.00,,2013-07-27 19:32:00,
2013-07-27 14:43:00,76.0,60.0,29.92,WNW,298,3.0,9.0,57,0.00,,,0.00,,2013-07-27 19:43:00,
2013-07-27 14:53:00,76.0,60.0,29.92,WNW,298,3.0,9.0,57,0.00,,,0.00,,2013-07-27 19:53:00,
2013-07-27 15:02:00,76.0,60.0,29.92,North,349,5.0,12.0,58,0.00,,,0.00,,2013-07-27 20:02:00,
2013-07-27 15:12:00,76.0,59.0,29.92,NW,304,5.0,11.0,55,0.00,,,0.00,,2013-07-27 20:12:00,
2013-07-27 15:23:00,76.0,59.0,29.92,NW,304,5.0,11.0,55,0.00,,,0.00,,2013-07-27 20:23:00,
2013-07-27 15:32:00,76.0,61.0,29.92,WNW,288,4.0,12.0,59,0.00,,,0.00,,2013-07-27 20:32:00,
2013-07-27 15:43:00,76.0,61.0,29.92,NW,309,4.0,14.0,59,0.00,,,0.00,,2013-07-27 20:43:00,
2013-07-27 15:52:00,76.0,61.0,29.92,NW,309,4.0,14.0,59,0.00,,,0.00,,2013-07-27 20:52:00,
2013-07-27 16:03:00,76.0,57.0,29.92,WNW,303,6.0,12.0,51,0.00,,,0.00,,2013-07-27 21:03:00,
2013-07-27 16:12:00,75.0,59.0,29.92,NNW,336,3.0,10.0,57,0.00,,,0.00,,2013-07-27 21:12:00,
2013-07-27 16:23:00,75.0,59.0,29.92,NNW,336,3.0,10.0,57,0.00,,,0.00,,2013-07-27 21:23:00,
2013-07-27 16:33:00,75.0,60.0,29.92,NNW,340,5.0,15.0,60,0.00,,,0.00,,2013-07-27 21:33:00,
2013-07-27 16:43:00,74.0,58.0,29.92,NNW,327,5.0,12.0,57,0.00,,,0.00,,2013-07-27 21:43:00,
2013-07-27 16:52:00,74.0,58.0,29.92,NNW,327,5.0,12.0,57,0.00,,,0.00,,2013-07-27 21:52:00,
2013-07-27 17:02:00,74.0,59.0,29.92,NNW,328,3.0,11.0,59,0.00,,,0.00,,2013-07-27 22:02:00,
2013-07-27 17:12:00,75.0,58.0,29.93,WNW,282,5.0,12.0,56,0.00,,,0.00,,2013-07-27 22:12:00,
2013-07-27 17:22:00,75.0,58.0,29.93,WNW,282,5.0,12.0,56,0.00,,,0.00,,2013-07-27 22:22:00,
2013-07-27 17:33:00,73.0,58.0,29.93,WNW,287,4.0,12.0,60,0.00,,,0.00,,2013-07-27 22:33:00,
2013-07-27 17:43:00,73.0,55.0,29.93,NNW,327,10.0,19.0,54,0.00,,,0.00,,2013-07-27 22:43:00,
2013-07-27 17:53:00,73.0,55.0,29.93,NNW,327,10.0,19.0,54,0.00,,,0.00,,2013-07-27 22:53:00,
2013-07-27 18:02:00,73.0,55.0,29.93,NNW,335,10.0,16.0,54,0.00,,,0.00,,2013-07-27 23:02:00,
2013-07-27 18:12:00,73.0,55.0,29.93,NNW,343,8.0,14.0,53,0.00,,,0.00,,2013-07-27 23:12:00,
2013-07-27 18:22:00,73.0,55.0,29.93,NNW,343,8.0,14.0,53,0.00,,,0.00,,2013-07-27 23:22:00,
2013-07-27 18:32:00,72.0,54.0,29.93,NNW,336,6.0,13.0,53,0.00,,,0.00,,2013-07-27 23:32:00,
2013-07-27 18:44:00,72.0,54.0,29.93,NNW,342,8.0,13.0,54,0.00,,,0.00,,2013-07-27 23:44:00,
2013-07-27 18:52:00,72.0,54.0,29.93,NNW,342,8.0,13.0,54,0.00,,,0.00,,2013-07-27 23:52:00,
2013-07-27 19:02:00,71.0,53.0,29.94,NNW,331,7.0,13.0,53,0.00,,,0.00,,2013-07-28 00:02:00,
2013-07-27 19:12:00,70.0,53.0,29.95,NNW,340,7.0,12.0,55,0.00,,,0.00,,2013-07-28 00:12:00,
2013-07-27 19:22:00,70.0,53.0,29.95,NNW,340,7.0,12.0,55,0.00,,,0.00,,2013-07-28 00:22:00,
2013-07-27 19:32:00,70.0,53.0,29.95,NNW,338,5.0,13.0,54,0.00,,,0.00,,2013-07-28 00:32:00,
2013-07-27 19:53:00,69.0,52.0,29.96,NNW,344,7.0,12.0,55,0.00,,,0.00,,2013-07-28 00:53:00,
2013-07-27 20:02:00,68.0,52.0,29.96,North,5,4.0,10.0,57,0.00,,,0.00,,2013-07-28 01:02:00,
2013-07-27 20:12:00,67.0,51.0,29.96,NNW,329,7.0,11.0,57,0.00,,,0.00,,2013-07-28 01:12:00,
2013-07-27 20:22:00,67.0,51.0,29.96,NNW,329,7.0,11.0,57,0.00,,,0.00,,2013-07-28 01:22:00,
2013-07-27 20:32:00,66.0,52.0,29.96,NNW,333,2.0,9.0,61,0.00,,,0.00,,2013-07-28 01:32:00,
2013-07-27 20:43:00,64.0,51.0,29.97,NNW,340,5.0,8.0,63,0.00,,,0.00,,2013-07-28 01:43:00,
2013-07-27 20:53:00,64.0,51.0,29.97,NNW,340,5.0,8.0,63,0.00,,,0.00,,2013-07-28 01:53:00,
2013-07-27 21:03:00,63.0,52.0,29.97,NNW,344,3.0,7.0,67,0.00,,,0.00,,2013-07-28 02:03:00,
2013-07-27 21:12:00,62.0,52.0,29.97,NNW,339,2.0,5.0,70,0.00,,,0.00,,2013-07-28 02:12:00,
2013-07-27 21:22:00,62.0,52.0,29.97,NNW,339,2.0,5.0,70,0.00,,,0.00,,2013-07-28 02:22:00,
2013-07-27 21:32:00,62.0,52.0,29.98,NNW,340,3.0,6.0,71,0.00,,,0.00,,2013-07-28 02:32:00,
2013-07-27 21:53:00,61.0,52.0,29.98,North,355,2.0,5.0,73,0.00,,,0.00,,2013-07-28 02:53:00,
2013-07-27 22:02:00,61.0,53.0,29.98,NNW,340,0.0,4.0,74,0.00,,,0.00,,2013-07-28 03:02:00,
2013-07-27 22:12:00,60.0,53.0,29.98,NNW,340,0.0,1.0,77,0.00,,,0.00,,2013-07-28 03:12:00,
2013-07-27 22:22:00,60.0,53.0,29.98,NNW,340,0.0,1.0,77,0.00,,,0.00,,2013-07-28 03:22:00,
2013-07-27 22:32:00,59.0,53.0,29.99,NNW,340,0.0,0.0,80,0.00,,,0.00,,2013-07-28 03:32:00,
2013-07-27 22:42:00,58.0,53.0,29.99,NNW,340,0.0,0.0,83,0.00,,,0.00,,2013-07-28 03:42:00,
2013-07-27 22:53:00,58.0,53.0,29.99,NNW,340,0.0,0.0,83,0.00,,,0.00,,2013-07-28 03:53:00,
2013-07-27 23:02:00,57.0,53.0,29.99,NNW,340,0.0,0.0,87,0.00,,,0.00,,2013-07-28 04:02:00,
2013-07-27 23:12:00,56.0,53.0,29.99,NNW,340,0.0,0.0,90,0.00,,,0.00,,2013-07-28 04:12:00,
2013-07-27 23:22:00,56.0,53.0,29.99,NNW,340,0.0,0.0,90,0.00,,,0.00,,2013-07-28 04:22:00,
2013-07-27 23:32:00,55.0,52.0,30.00,NNW,340,0.0,0.0,90,0.00,,,0.00,,2013-07-28 04:32:00,
2013-07-27 23:53:00,55.0,52.0,30.00,NNW,340,0.0,0.0,91,0.00,,,0.00,,2013-07-28 04:53:00,